createdAt,value
2019-05-03T00:02:23.916Z,9.23
2019-05-03T00:05:02.374Z,7.00
2019-05-03T00:07:32.292Z,6.57
2019-05-03T00:10:02.831Z,6.77
2019-05-03T00:12:32.821Z,8.93
2019-05-03T00:15:12.645Z,9.00
2019-05-03T00:17:42.166Z,11.47
2019-05-03T00:20:11.833Z,9.40
2019-05-03T00:22:41.891Z,11.83
2019-05-03T00:25:12.900Z,11.77
2019-05-03T00:27:42.841Z,6.47
2019-05-03T00:30:12.524Z,10.50
2019-05-03T00:32:42.790Z,8.10
2019-05-03T00:35:17.086Z,7.47
2019-05-03T00:37:48.306Z,10.90
2019-05-03T00:40:22.406Z,9.80
2019-05-03T00:42:51.994Z,9.90
2019-05-03T00:45:22.066Z,11.73
2019-05-03T00:47:52.753Z,9.67
2019-05-03T00:50:23.332Z,13.00
2019-05-03T00:52:52.933Z,13.10
2019-05-03T00:55:22.529Z,9.90
2019-05-03T00:57:52.256Z,8.70
2019-05-03T01:00:21.968Z,7.60
2019-05-03T01:02:51.823Z,10.17
2019-05-03T01:05:22.709Z,10.27
2019-05-03T01:07:52.678Z,10.27
2019-05-03T01:10:22.690Z,8.20
2019-05-03T01:12:52.533Z,9.00
2019-05-03T01:15:42.432Z,12.47
2019-05-03T01:18:13.645Z,6.37
2019-05-03T01:20:43.158Z,10.93
2019-05-03T01:23:12.750Z,6.77
2019-05-03T01:25:42.913Z,9.17
2019-05-03T01:28:12.590Z,10.13
2019-05-03T01:30:42.527Z,9.17
2019-05-03T01:33:12.244Z,7.20
2019-05-03T01:35:42.786Z,10.60
2019-05-03T01:38:12.397Z,6.70
2019-05-03T01:40:42.051Z,12.60
2019-05-03T01:43:11.814Z,11.87
2019-05-03T01:45:42.467Z,7.10
2019-05-03T01:48:16.407Z,8.67
2019-05-03T01:50:47.641Z,9.23
2019-05-03T01:53:21.738Z,8.30
2019-05-03T01:55:52.293Z,12.00
2019-05-03T01:58:23.866Z,8.70
2019-05-03T02:00:58.191Z,10.77
2019-05-03T02:03:32.559Z,14.03
2019-05-03T02:06:02.467Z,12.10
2019-05-03T02:08:32.661Z,9.93
2019-05-03T02:11:02.363Z,10.97
2019-05-03T02:13:32.313Z,8.67
2019-05-03T02:16:02.393Z,13.47
2019-05-03T02:18:32.069Z,14.90
2019-05-03T02:21:02.056Z,9.77
2019-05-03T02:23:32.268Z,12.13
2019-05-03T02:26:03.096Z,11.77
2019-05-03T02:28:33.520Z,15.27
2019-05-03T02:31:03.724Z,16.17
2019-05-03T02:33:33.778Z,8.43
2019-05-03T02:36:04.053Z,11.83
2019-05-03T02:38:34.013Z,9.23
2019-05-03T02:41:03.686Z,11.93
2019-05-03T02:43:36.402Z,15.40
2019-05-03T02:46:25.307Z,12.63
2019-05-03T02:49:11.846Z,11.10
2019-05-03T02:51:41.451Z,9.90
2019-05-03T02:54:11.014Z,9.83
2019-05-03T02:56:40.522Z,9.00
2019-05-03T02:59:10.115Z,10.20
2019-05-03T03:01:40.718Z,10.27
2019-05-03T03:04:10.933Z,9.90
2019-05-03T03:06:42.660Z,8.93
2019-05-03T03:09:12.169Z,10.07
2019-05-03T03:11:42.531Z,8.17
2019-05-03T03:14:16.761Z,11.80
2019-05-03T03:16:48.356Z,9.47
2019-05-03T03:19:18.736Z,6.47
2019-05-03T03:21:49.810Z,10.37
2019-05-03T03:24:25.961Z,12.17
2019-05-03T03:26:58.326Z,11.27
2019-05-03T03:29:28.240Z,10.87
2019-05-03T03:32:10.758Z,13.90
2019-05-03T03:34:56.858Z,12.07
2019-05-03T03:37:25.825Z,10.43
2019-05-03T03:39:56.111Z,9.60
2019-05-03T03:42:25.963Z,8.80
2019-05-03T03:44:56.722Z,11.27
2019-05-03T03:47:29.762Z,13.10
2019-05-03T03:50:00.004Z,8.80
2019-05-03T03:52:32.501Z,15.67
2019-05-03T03:55:06.305Z,13.20
2019-05-03T03:57:36.227Z,11.97
2019-05-03T04:00:07.891Z,11.97
2019-05-03T04:02:38.817Z,9.73
2019-05-03T04:05:08.842Z,12.17
2019-05-03T04:07:38.990Z,12.20
2019-05-03T04:10:09.328Z,14.77
2019-05-03T04:12:39.663Z,12.20
2019-05-03T04:15:27.701Z,9.63
2019-05-03T04:17:59.649Z,10.27
2019-05-03T04:20:30.868Z,11.33
2019-05-03T04:23:00.803Z,13.17
2019-05-03T04:25:30.390Z,12.70
2019-05-03T04:27:59.946Z,10.30
2019-05-03T04:30:29.564Z,10.33
2019-05-03T04:32:59.212Z,7.80
2019-05-03T04:35:28.798Z,7.57
2019-05-03T04:37:58.402Z,13.73
2019-05-03T04:40:28.091Z,8.27
2019-05-03T04:42:57.771Z,10.83
2019-05-03T04:45:27.362Z,9.93
2019-05-03T04:47:56.893Z,8.73
2019-05-03T04:50:26.473Z,13.30
2019-05-03T04:52:56.652Z,8.80
2019-05-03T04:55:27.039Z,9.27
2019-05-03T04:57:56.677Z,11.30
2019-05-03T05:00:26.704Z,13.87
2019-05-03T05:02:56.190Z,8.10
2019-05-03T05:05:26.433Z,10.53
2019-05-03T05:07:56.088Z,13.17
2019-05-03T05:10:26.273Z,9.57
2019-05-03T05:12:55.980Z,10.77
2019-05-03T05:15:26.322Z,11.70
2019-05-03T05:18:05.719Z,9.00
2019-05-03T05:20:45.539Z,9.23
2019-05-03T05:23:15.119Z,12.83
2019-05-03T05:26:02.609Z,10.30
2019-05-03T05:28:35.504Z,12.87
2019-05-03T05:31:05.426Z,14.17
2019-05-03T05:33:35.416Z,10.57
2019-05-03T05:36:05.042Z,13.90
2019-05-03T05:38:34.724Z,10.47
2019-05-03T05:41:05.283Z,9.30
2019-05-03T05:43:35.675Z,8.60
2019-05-03T05:46:05.498Z,11.03
2019-05-03T05:48:36.668Z,10.13
2019-05-03T05:51:06.177Z,11.37
2019-05-03T05:53:35.987Z,10.87
2019-05-03T05:56:25.090Z,14.97
2019-05-03T05:58:56.401Z,10.27
2019-05-03T06:01:35.348Z,11.03
2019-05-03T06:04:05.438Z,9.53
2019-05-03T06:06:36.736Z,14.43
2019-05-03T06:09:08.867Z,14.77
2019-05-03T06:11:40.063Z,13.87
2019-05-03T06:14:11.220Z,11.03
2019-05-03T06:16:45.416Z,10.83
2019-05-03T06:19:19.677Z,8.97
2019-05-03T06:21:54.860Z,9.00
2019-05-03T06:24:28.504Z,8.47
2019-05-03T06:27:00.427Z,9.73
2019-05-03T06:29:29.931Z,15.67
2019-05-03T06:32:06.851Z,12.77
2019-05-03T06:34:36.508Z,14.73
2019-05-03T06:37:10.773Z,11.97
2019-05-03T06:39:40.267Z,9.93
2019-05-03T06:42:14.511Z,10.10
2019-05-03T06:44:41.795Z,9.00
2019-05-03T06:47:11.370Z,11.40
2019-05-03T06:49:44.827Z,9.10
2019-05-03T06:52:12.402Z,9.10
2019-05-03T06:54:41.909Z,11.70
2019-05-03T06:57:14.766Z,10.17
2019-05-03T06:59:48.920Z,10.13
2019-05-03T07:02:37.871Z,8.17
2019-05-03T07:05:21.136Z,8.70
2019-05-03T07:07:52.469Z,8.80
2019-05-03T07:10:32.905Z,8.10
2019-05-03T07:13:04.962Z,9.57
2019-05-03T07:15:35.217Z,10.90
2019-05-03T07:18:08.308Z,8.43
2019-05-03T07:20:46.902Z,11.93
2019-05-03T07:23:20.287Z,8.07
2019-05-03T07:25:51.499Z,12.80
2019-05-03T07:28:21.234Z,7.87
2019-05-03T07:30:50.806Z,20.83
2019-05-03T07:33:25.526Z,13.20
2019-05-03T07:35:55.337Z,12.40
2019-05-03T07:38:25.311Z,18.40
2019-05-03T07:40:55.060Z,10.43
2019-05-03T07:43:24.692Z,11.60
2019-05-03T07:45:55.300Z,8.47
2019-05-03T07:48:25.595Z,7.87
2019-05-03T07:50:55.180Z,7.10
2019-05-03T07:53:25.314Z,7.93
2019-05-03T07:55:56.926Z,6.67
2019-05-03T07:58:28.178Z,8.73
2019-05-03T08:01:08.790Z,5.20
2019-05-03T08:03:37.696Z,9.17
2019-05-03T08:06:15.100Z,6.93
2019-05-03T08:08:49.265Z,6.23
2019-05-03T08:11:20.160Z,9.40
2019-05-03T08:13:49.919Z,9.10
2019-05-03T08:16:19.577Z,8.77
2019-05-03T08:18:49.057Z,6.53
2019-05-03T08:21:18.686Z,10.27
2019-05-03T08:23:48.274Z,8.67
2019-05-03T08:26:17.840Z,9.03
2019-05-03T08:28:47.396Z,7.20
2019-05-03T08:31:18.620Z,7.53
2019-05-03T08:34:05.205Z,5.00
2019-05-03T08:36:36.413Z,5.10
2019-05-03T08:39:06.429Z,10.33
2019-05-03T08:41:37.844Z,5.43
2019-05-03T08:44:07.421Z,7.57
2019-05-03T08:46:37.072Z,7.27
2019-05-03T08:49:06.657Z,7.17
2019-05-03T08:51:36.243Z,4.33
2019-05-03T08:54:05.813Z,8.60
2019-05-03T08:56:35.374Z,4.37
2019-05-03T08:59:04.948Z,5.97
2019-05-03T09:01:36.459Z,16.47
2019-05-03T09:04:05.789Z,5.07
2019-05-03T09:06:35.529Z,11.37
2019-05-03T09:09:09.566Z,8.00
2019-05-03T09:11:40.277Z,8.30
2019-05-03T09:14:15.391Z,7.50
2019-05-03T09:16:45.303Z,5.10
2019-05-03T09:19:17.692Z,9.30
2019-05-03T09:21:48.016Z,7.13
2019-05-03T09:24:17.581Z,5.27
2019-05-03T09:26:47.162Z,5.80
2019-05-03T09:29:16.800Z,4.40
2019-05-03T09:31:46.317Z,7.60
2019-05-03T09:34:16.362Z,6.43
2019-05-03T09:36:46.135Z,5.97
2019-05-03T09:39:15.780Z,3.83
2019-05-03T09:41:45.927Z,5.67
2019-05-03T09:44:15.646Z,4.87
2019-05-03T09:46:54.805Z,4.60
2019-05-03T09:49:25.919Z,5.13
2019-05-03T09:51:59.767Z,6.23
2019-05-03T09:54:34.749Z,4.07
2019-05-03T09:57:05.819Z,6.10
2019-05-03T09:59:36.163Z,6.03
2019-05-03T10:02:06.499Z,8.37
2019-05-03T10:04:36.747Z,6.60
2019-05-03T10:07:17.079Z,4.83
2019-05-03T10:10:00.314Z,4.80
2019-05-03T10:12:32.131Z,5.73
2019-05-03T10:15:06.339Z,5.50
2019-05-03T10:17:36.701Z,5.33
2019-05-03T10:20:08.761Z,5.47
2019-05-03T10:22:38.333Z,7.00
2019-05-03T10:25:08.124Z,8.80
2019-05-03T10:27:46.263Z,8.23
2019-05-03T10:30:22.619Z,7.83
2019-05-03T10:33:08.809Z,9.40
2019-05-03T10:35:38.379Z,9.50
2019-05-03T10:38:07.947Z,8.10
2019-05-03T10:40:37.784Z,8.50
2019-05-03T10:43:09.852Z,8.97
2019-05-03T10:45:47.067Z,6.63
2019-05-03T10:48:19.378Z,5.43
2019-05-03T10:50:51.405Z,7.17
2019-05-03T10:53:31.853Z,7.60
2019-05-03T10:56:20.227Z,5.77
2019-05-03T10:59:09.765Z,5.57
2019-05-03T11:01:47.043Z,8.93
2019-05-03T11:04:16.538Z,9.87
2019-05-03T11:06:46.118Z,6.00
2019-05-03T11:09:15.510Z,9.83
2019-05-03T11:11:45.428Z,9.30
2019-05-03T11:14:15.361Z,2.97
2019-05-03T11:16:46.051Z,5.30
2019-05-03T11:19:15.920Z,8.23
2019-05-03T11:21:45.719Z,4.83
2019-05-03T11:24:15.041Z,9.37
2019-05-03T11:26:46.405Z,7.40
2019-05-03T11:29:16.044Z,10.07
2019-05-03T11:31:47.309Z,6.87
2019-05-03T11:34:22.246Z,5.67
2019-05-03T11:37:08.522Z,5.67
2019-05-03T11:39:37.971Z,6.17
2019-05-03T11:42:07.445Z,2.73
2019-05-03T11:44:39.844Z,7.47
2019-05-03T11:47:09.340Z,4.80
2019-05-03T11:49:38.892Z,6.97
2019-05-03T11:52:08.486Z,5.03
2019-05-03T11:54:38.070Z,7.03
2019-05-03T11:57:17.815Z,8.40
2019-05-03T11:59:47.714Z,6.73
2019-05-03T12:02:31.302Z,5.63
2019-05-03T12:05:17.853Z,5.60
2019-05-03T12:07:47.435Z,5.67
2019-05-03T12:10:33.114Z,6.87
2019-05-03T12:12:50.606Z,4.90
2019-05-03T12:15:20.513Z,5.53
2019-05-03T12:17:58.475Z,3.37
2019-05-03T12:20:28.573Z,3.50
2019-05-03T12:22:57.782Z,6.83
2019-05-03T12:25:36.107Z,5.50
2019-05-03T12:28:06.619Z,5.40
2019-05-03T12:30:36.301Z,8.03
2019-05-03T12:33:06.238Z,5.77
2019-05-03T12:35:40.845Z,7.00
2019-05-03T12:38:10.520Z,4.03
2019-05-03T12:40:41.257Z,4.83
2019-05-03T12:43:19.876Z,4.83
2019-05-03T12:45:55.473Z,3.00
2019-05-03T12:48:25.070Z,3.57
2019-05-03T12:50:55.929Z,5.50
2019-05-03T12:53:27.200Z,5.30
2019-05-03T12:55:56.768Z,3.93
2019-05-03T12:58:28.129Z,5.60
2019-05-03T13:00:59.355Z,6.57
2019-05-03T13:03:33.573Z,4.43
2019-05-03T13:06:05.265Z,6.73
2019-05-03T13:08:36.273Z,3.93
2019-05-03T13:11:06.729Z,5.97
2019-05-03T13:13:36.486Z,7.43
2019-05-03T13:16:06.987Z,5.70
2019-05-03T13:18:36.618Z,4.07
2019-05-03T13:21:06.417Z,8.07
2019-05-03T13:23:36.765Z,10.30
2019-05-03T13:26:06.350Z,6.30
2019-05-03T13:28:35.944Z,8.43
2019-05-03T13:31:05.955Z,7.70
2019-05-03T13:33:36.394Z,4.30
2019-05-03T13:36:16.241Z,4.80
2019-05-03T13:39:11.493Z,4.57
2019-05-03T13:41:45.591Z,4.20
2019-05-03T13:44:24.739Z,5.40
2019-05-03T13:47:05.767Z,2.77
2019-05-03T13:49:55.181Z,4.43
2019-05-03T13:52:28.586Z,4.87
2019-05-03T13:55:05.441Z,4.03
2019-05-03T13:57:35.796Z,5.87
2019-05-03T14:00:07.410Z,6.17
2019-05-03T14:02:38.322Z,6.50
2019-05-03T14:05:08.081Z,9.60
2019-05-03T14:07:44.565Z,4.77
2019-05-03T14:10:14.343Z,5.77
2019-05-03T14:12:45.472Z,4.87
2019-05-03T14:15:16.634Z,5.73
2019-05-03T14:17:46.189Z,7.50
2019-05-03T14:20:23.182Z,3.53
2019-05-03T14:22:57.123Z,6.10
2019-05-03T14:25:37.115Z,10.40
2019-05-03T14:28:10.344Z,5.90
2019-05-03T14:30:45.375Z,8.67
2019-05-03T14:33:14.755Z,7.50
2019-05-03T14:35:45.224Z,8.23
2019-05-03T14:38:15.289Z,5.17
2019-05-03T14:40:48.456Z,8.20
2019-05-03T14:43:19.797Z,9.13
2019-05-03T14:45:49.293Z,4.53
2019-05-03T14:48:20.412Z,6.00
2019-05-03T14:50:50.004Z,8.93
2019-05-03T14:53:20.904Z,6.30
2019-05-03T14:56:34.827Z,7.50
2019-05-03T14:59:15.391Z,4.77
2019-05-03T15:01:55.269Z,7.73
2019-05-03T15:04:23.013Z,4.63
2019-05-03T15:06:57.758Z,7.30
2019-05-03T15:09:31.475Z,8.07
2019-05-03T15:12:05.468Z,6.83
2019-05-03T15:14:38.644Z,5.77
2019-05-03T15:17:11.262Z,6.00
2019-05-03T15:19:42.399Z,4.87
2019-05-03T15:22:12.225Z,4.83
2019-05-03T15:24:45.117Z,4.77
2019-05-03T15:27:15.000Z,4.03
2019-05-03T15:29:49.890Z,4.27
2019-05-03T15:32:23.019Z,6.33
2019-05-03T15:34:52.790Z,4.07
2019-05-03T15:37:31.809Z,3.53
2019-05-03T15:40:07.299Z,7.00
2019-05-03T15:42:38.699Z,6.03
2019-05-03T15:45:27.313Z,3.60
2019-05-03T15:48:19.108Z,4.27
2019-05-03T15:50:50.534Z,5.27
2019-05-03T15:53:45.056Z,5.53
2019-05-03T15:56:25.100Z,3.30
2019-05-03T15:59:08.198Z,3.83
2019-05-03T16:01:43.875Z,4.67
2019-05-03T16:04:14.435Z,9.63
2019-05-03T16:06:44.866Z,3.10
2019-05-03T16:09:18.264Z,5.33
2019-05-03T16:11:57.439Z,3.00
2019-05-03T16:14:46.816Z,4.50
2019-05-03T16:17:16.932Z,5.00
2019-05-03T16:19:47.718Z,4.03
2019-05-03T16:22:19.792Z,5.77
2019-05-03T16:24:55.663Z,6.37
2019-05-03T16:28:04.653Z,4.00
2019-05-03T16:30:36.768Z,9.40
2019-05-03T16:33:07.678Z,5.33
2019-05-03T16:35:44.482Z,5.13
2019-05-03T16:38:15.713Z,6.33
2019-05-03T16:40:45.541Z,6.50
2019-05-03T16:43:16.562Z,7.20
2019-05-03T16:45:46.729Z,4.43
2019-05-03T16:48:18.424Z,5.50
2019-05-03T16:50:49.653Z,4.83
2019-05-03T16:53:19.734Z,5.10
2019-05-03T16:56:17.358Z,6.13
2019-05-03T16:58:49.699Z,6.10
2019-05-03T17:01:26.065Z,6.33
2019-05-03T17:04:03.996Z,6.53
2019-05-03T17:07:15.128Z,12.07
2019-05-03T17:10:07.263Z,9.50
2019-05-03T17:12:39.079Z,7.97
2019-05-03T17:15:14.337Z,8.43
2019-05-03T17:17:45.171Z,6.17
2019-05-03T17:20:16.616Z,6.37
2019-05-03T17:22:46.364Z,8.23
2019-05-03T17:25:16.153Z,4.03
2019-05-03T17:27:47.490Z,5.77
2019-05-03T17:30:19.375Z,7.43
2019-05-03T17:32:49.511Z,8.77
2019-05-03T17:35:25.156Z,5.47
2019-05-03T17:38:00.996Z,9.27
2019-05-03T17:40:48.557Z,6.57
2019-05-03T17:43:22.327Z,4.13
2019-05-03T17:45:54.983Z,5.67
2019-05-03T17:48:24.461Z,4.07
2019-05-03T17:50:55.083Z,6.90
2019-05-03T17:53:38.214Z,4.67
2019-05-03T17:56:09.309Z,6.37
2019-05-03T17:58:52.355Z,4.37
2019-05-03T18:01:35.558Z,6.30
2019-05-03T18:04:21.595Z,5.20
2019-05-03T18:06:58.813Z,5.00
2019-05-03T18:09:30.030Z,7.73
2019-05-03T18:12:06.081Z,7.50
2019-05-03T18:14:35.661Z,5.27
2019-05-03T18:17:05.693Z,4.27
2019-05-03T18:19:35.561Z,5.00
2019-05-03T18:22:05.293Z,9.03
2019-05-03T18:24:35.323Z,10.40
2019-05-03T18:27:05.588Z,8.40
2019-05-03T18:29:35.175Z,6.23
2019-05-03T18:32:05.508Z,6.00
2019-05-03T18:34:35.395Z,4.23
2019-05-03T18:37:05.048Z,9.83
2019-05-03T18:42:39.076Z,5.23
2019-05-03T18:45:20.821Z,6.77
2019-05-03T18:47:51.320Z,9.33
2019-05-03T18:50:21.728Z,4.80
2019-05-03T18:52:51.713Z,5.77
2019-05-03T18:55:21.604Z,4.30
2019-05-03T18:57:51.704Z,7.40
2019-05-03T19:00:24.558Z,5.97
2019-05-03T19:02:54.606Z,4.37
2019-05-03T19:05:25.768Z,5.03
2019-05-03T19:07:59.401Z,3.07
2019-05-03T19:10:32.977Z,4.97
2019-05-03T19:13:14.997Z,3.77
2019-05-03T19:15:44.606Z,6.87
2019-05-03T19:18:15.608Z,3.63
2019-05-03T19:20:45.535Z,3.53
2019-05-03T19:23:15.461Z,4.77
2019-05-03T19:25:49.582Z,3.50
2019-05-03T19:28:22.267Z,3.17
2019-05-03T19:30:55.031Z,4.23
2019-05-03T19:33:27.202Z,2.90
2019-05-03T19:36:00.371Z,5.00
2019-05-03T19:38:30.037Z,3.67
2019-05-03T19:40:59.376Z,4.83
2019-05-03T19:43:28.767Z,5.30
2019-05-03T19:45:58.673Z,3.57
2019-05-03T19:48:28.508Z,3.50
2019-05-03T19:50:58.391Z,4.77
2019-05-03T19:53:29.726Z,7.30
2019-05-03T19:56:02.979Z,4.33
2019-05-03T19:58:35.639Z,5.13
2019-05-03T20:01:07.276Z,3.43
2019-05-03T20:03:51.191Z,5.13
2019-05-03T20:06:31.639Z,4.63
2019-05-03T20:09:10.217Z,5.37
2019-05-03T20:11:39.931Z,4.13
2019-05-03T20:14:09.976Z,5.37
2019-05-03T20:16:39.685Z,5.97
2019-05-03T20:19:18.771Z,5.40
2019-05-03T20:21:41.351Z,4.30
2019-05-03T20:24:11.265Z,6.57
2019-05-03T20:26:41.262Z,6.10
2019-05-03T20:29:10.681Z,5.13
2019-05-03T20:31:40.836Z,3.70
2019-05-03T20:34:10.756Z,4.77
2019-05-03T20:36:40.682Z,4.70
2019-05-03T20:39:14.704Z,5.77
2019-05-03T20:41:45.299Z,3.97
2019-05-03T20:44:19.082Z,3.13
2019-05-03T20:46:49.795Z,6.30
2019-05-03T20:49:19.180Z,5.10
2019-05-03T20:51:51.275Z,4.77
2019-05-03T20:54:19.189Z,3.80
2019-05-03T20:56:48.657Z,5.67
2019-05-03T20:59:18.216Z,5.13
2019-05-03T21:01:47.371Z,6.70
2019-05-03T21:04:16.777Z,5.17
2019-05-03T21:06:46.330Z,9.87
2019-05-03T21:09:15.897Z,5.20
2019-05-03T21:11:45.132Z,9.37
2019-05-03T21:14:15.540Z,11.50
2019-05-03T21:16:49.316Z,5.27
2019-05-03T21:19:36.518Z,4.93
2019-05-03T21:22:07.285Z,5.13
2019-05-03T21:24:37.997Z,3.67
2019-05-03T21:27:07.466Z,7.57
2019-05-03T21:29:38.249Z,4.60
2019-05-03T21:32:07.396Z,5.50
2019-05-03T21:34:36.533Z,8.07
2019-05-03T21:37:05.600Z,9.07
2019-05-03T21:39:35.069Z,5.73
2019-05-03T21:42:04.751Z,8.30
2019-05-03T21:44:34.768Z,9.23
2019-05-03T21:47:15.288Z,6.17
2019-05-03T21:49:49.303Z,4.63
2019-05-03T21:52:18.546Z,5.90
2019-05-03T21:54:47.674Z,4.73
2019-05-03T21:57:17.146Z,9.43
2019-05-03T21:59:46.367Z,7.30
2019-05-03T22:02:15.558Z,7.13
2019-05-03T22:04:44.656Z,5.67
2019-05-03T22:07:14.136Z,10.80
2019-05-03T22:09:45.335Z,7.07
2019-05-03T22:12:14.546Z,5.63
2019-05-03T22:14:45.645Z,7.17
2019-05-03T22:17:34.539Z,8.37
2019-05-03T22:20:07.020Z,6.40
2019-05-03T22:22:46.852Z,6.23
2019-05-03T22:25:18.102Z,9.13
2019-05-03T22:27:47.329Z,6.90
2019-05-03T22:30:16.469Z,6.80
2019-05-03T22:32:45.603Z,5.63
2019-05-03T22:35:15.686Z,7.20
2019-05-03T22:37:45.221Z,8.77
2019-05-03T22:40:14.696Z,8.33
2019-05-03T22:42:44.803Z,7.33
2019-05-03T22:45:14.120Z,7.47
2019-05-03T22:47:44.607Z,8.53
2019-05-03T22:50:14.922Z,8.27
2019-05-03T22:52:45.487Z,10.20
2019-05-03T22:55:15.299Z,6.37
2019-05-03T22:57:44.534Z,12.43
2019-05-03T23:00:14.631Z,9.93
2019-05-03T23:02:45.586Z,9.83
2019-05-03T23:05:15.072Z,6.83
2019-05-03T23:07:46.871Z,8.97
2019-05-03T23:10:17.401Z,8.47
2019-05-03T23:12:46.240Z,5.67
2019-05-03T23:15:15.457Z,5.90
2019-05-03T23:17:45.163Z,8.20
2019-05-03T23:20:19.068Z,10.37
2019-05-03T23:22:48.472Z,8.93
2019-05-03T23:25:17.692Z,8.93
2019-05-03T23:27:46.840Z,10.87
2019-05-03T23:30:15.991Z,9.30
2019-05-03T23:32:45.448Z,9.27
2019-05-03T23:35:14.681Z,9.13
2019-05-03T23:37:44.983Z,8.63
2019-05-03T23:40:14.868Z,9.17
2019-05-03T23:42:44.056Z,8.17
2019-05-03T23:45:14.913Z,7.90
2019-05-03T23:47:48.588Z,7.10
2019-05-03T23:50:19.092Z,4.40
2019-05-03T23:52:48.552Z,7.40
2019-05-03T23:55:25.438Z,4.33
2019-05-03T23:57:55.438Z,9.60
